KOMA/OMA METAR and TAF weather

Enter ICAO airport designator
Station Type Date Time Source
KOMA METAR 2021/05/14 06:52 UTC NOAA

KOMA 140652Z 16012KT 10SM BKN140 OVC200 15/00 A3020 RMK AO2 SLP223 T01500000


Station Type Date Time Source
KOMA Decoded METAR 2021/05/14 06:52 UTC NOAA

OMAHA EPPLEY AIRFIELD, NE, United States (KOMA) 41-18N 095-54W 312M
May 14, 2021 - 02:52 AM EDT / 2021.05.14 0652 UTC
Wind: from the SSE (160 degrees) at 14 MPH (12 KT):0
Visibility: 10 mile(s):0
Sky conditions: overcast
Temperature: 59.0 F (15.0 C)
Dew Point: 32.0 F (0.0 C)
Relative Humidity: 35%
Pressure (altimeter): 30.2 in. Hg (1022 hPa)
ob: KOMA 140652Z 16012KT 10SM BKN140 OVC200 15/00 A3020 RMK AO2 SLP223 T01500000
cycle: 7

Station Type Date Time Source
KOMA TAF 2021/05/14 07:03 UTC NOAA

TAF
AMD KOMA 140701Z 1407/1506 16010KT P6SM BKN120
FM141100 15010KT P6SM -SHRA SCT025 OVC060
FM141700 15008KT P6SM -SHRA BKN025 OVC050
FM150000 VRB05KT P6SM SCT025 SCT150

Example: see airport list